Time;durP1;ratioP1;P1;durP2;ratioP2;P2;SDS_P1;SDS_P2;PMS_P1;PMS_P2;Temp;Humidity;BMP_temperature;BMP_pressure;BME280_temperature;BME280_humidity;BME280_pressure;Samples;Min_cycle;Max_cycle;Signal;HPM_P1;HPM_P2
2021/12/17 00:01:05;;;;;;;64.70;31.40;;;;;;;;;;5028776;28;20046;-67
2021/12/17 00:03:36;;;;;;;63.20;30.75;;;;;;;;;;5028249;28;20017;-68
2021/12/17 00:08:35;;;;;;;72.32;31.83;;;;;;;;;;5028405;28;20038;-67
2021/12/17 00:11:02;;;;;;;79.38;34.72;;;;;;;;;;5027183;28;20136;-67
2021/12/17 00:13:28;;;;;;;72.22;31.48;;;;;;;;;;5026702;28;20028;-68
2021/12/17 00:15:54;;;;;;;72.45;34.35;;;;;;;;;;5027004;28;20660;-68
2021/12/17 00:18:31;;;;;;;78.45;35.88;;;;;;;;;;5027488;28;20032;-67
2021/12/17 00:48:35;;;;;;;71.40;31.73;;;;;;;;;;5050478;28;20069;-68
2021/12/17 00:51:31;;;;;;;72.00;33.25;;;;;;;;;;5050939;28;20099;-67
2021/12/17 00:53:47;;;;;;;68.53;33.47;;;;;;;;;;5049644;28;20029;-67
2021/12/17 00:56:13;;;;;;;73.30;32.78;;;;;;;;;;5050371;28;20025;-67
2021/12/17 00:58:39;;;;;;;81.50;33.13;;;;;;;;;;5033243;28;20160;-67
2021/12/17 01:01:05;;;;;;;73.65;31.60;;;;;;;;;;5050894;28;20028;-67
2021/12/17 01:03:31;;;;;;;70.60;31.15;;;;;;;;;;5032407;28;20059;-67
2021/12/17 01:05:57;;;;;;;70.93;34.15;;;;;;;;;;5032988;28;20136;-68
2021/12/17 01:08:23;;;;;;;77.35;30.98;;;;;;;;;;5050942;28;20025;-67
2021/12/17 01:10:51;;;;;;;66.50;32.30;;;;;;;;;;5032901;28;20484;-67
2021/12/17 01:13:17;;;;;;;69.13;30.70;;;;;;;;;;5050104;28;20024;-68
2021/12/17 01:15:44;;;;;;;72.15;32.97;;;;;;;;;;5050707;28;20100;-67
2021/12/17 01:18:14;;;;;;;77.53;35.63;;;;;;;;;;5036753;28;20021;-67
2021/12/17 01:21:08;;;;;;;70.70;30.83;;;;;;;;;;5036828;28;20048;-67
2021/12/17 01:24:05;;;;;;;75.50;32.10;;;;;;;;;;5054016;28;20021;-67
2021/12/17 01:38:09;;;;;;;;;;;;;;;;;;;;;
2021/12/17 01:42:25;;;;;;;69.55;31.35;;;;;;;;;;5053605;28;20025;-67
2021/12/17 01:44:51;;;;;;;81.85;33.55;;;;;;;;;;5054184;28;20545;-67
2021/12/17 01:47:17;;;;;;;76.70;31.55;;;;;;;;;;5054243;28;20096;-66
2021/12/17 02:00:17;;;;;;;72.10;31.23;;;;;;;;;;5054008;28;20060;-67
2021/12/17 02:02:46;;;;;;;84.50;34.08;;;;;;;;;;5035332;28;20060;-67
2021/12/17 02:05:12;;;;;;;;;;;;;;;;;;5054206;28;20017;-67
2021/12/17 02:07:38;;;;;;;74.82;30.70;;;;;;;;;;5054111;28;20387;-66
2021/12/17 02:10:37;;;;;;;80.38;31.77;;;;;;;;;;5053931;28;20068;-67
2021/12/17 02:13:07;;;;;;;77.75;31.42;;;;;;;;;;5052957;28;20374;-67
2021/12/17 02:31:38;;;;;;;81.63;34.70;;;;;;;;;;5053012;28;20021;-68
2021/12/17 02:37:04;;;;;;;74.63;33.20;;;;;;;;;;5036697;28;20234;-66
2021/12/17 02:47:38;;;;;;;85.78;33.72;;;;;;;;;;5053335;28;20036;-67
2021/12/17 02:50:05;;;;;;;85.30;33.90;;;;;;;;;;5035167;28;20025;-66
2021/12/17 02:52:35;;;;;;;77.35;35.67;;;;;;;;;;5034356;28;20048;-66
2021/12/17 02:55:02;;;;;;;72.53;30.98;;;;;;;;;;5035024;28;20033;-67
2021/12/17 02:57:28;;;;;;;81.00;35.55;;;;;;;;;;5035155;28;20044;-67
2021/12/17 02:59:54;;;;;;;85.47;33.63;;;;;;;;;;5034964;28;20025;-67
2021/12/17 03:02:26;;;;;;;72.47;31.58;;;;;;;;;;5051970;28;20057;-67
2021/12/17 03:04:52;;;;;;;82.05;33.97;;;;;;;;;;5052694;28;20096;-66
2021/12/17 03:07:18;;;;;;;80.30;34.20;;;;;;;;;;5034635;28;20048;-68
2021/12/17 03:10:03;;;;;;;71.40;32.15;;;;;;;;;;5052571;28;20487;-67
2021/12/17 03:12:39;;;;;;;72.90;32.45;;;;;;;;;;5034212;28;20112;-67
2021/12/17 03:25:51;;;;;;;76.10;32.47;;;;;;;;;;5052079;28;20028;-67
2021/12/17 03:28:17;;;;;;;83.05;35.00;;;;;;;;;;5034461;28;20072;-67
2021/12/17 03:30:45;;;;;;;80.53;32.70;;;;;;;;;;5034178;28;20611;-67
2021/12/17 03:33:11;;;;;;;82.10;34.60;;;;;;;;;;5033732;28;20025;-68
2021/12/17 03:35:37;;;;;;;81.50;33.75;;;;;;;;;;5076466;23;20544;-71
2021/12/17 03:38:03;;;;;;;82.03;35.08;;;;;;;;;;5070384;28;20043;-72
2021/12/17 03:40:31;;;;;;;78.30;34.42;;;;;;;;;;5071971;28;20062;-71
2021/12/17 03:43:02;;;;;;;78.95;33.35;;;;;;;;;;5071295;28;20360;-71
2021/12/17 03:45:28;;;;;;;77.32;32.25;;;;;;;;;;5071972;28;20452;-71
2021/12/17 03:47:54;;;;;;;74.25;30.40;;;;;;;;;;5072013;28;20435;-71
2021/12/17 03:50:20;;;;;;;74.30;29.13;;;;;;;;;;5073537;28;20025;-70
2021/12/17 03:52:46;;;;;;;60.20;28.80;;;;;;;;;;5053654;28;20395;-72
2021/12/17 03:55:12;;;;;;;60.63;27.30;;;;;;;;;;5055143;28;20020;-72
2021/12/17 03:57:38;;;;;;;61.35;27.42;;;;;;;;;;5055128;28;20495;-71
2021/12/17 04:00:06;;;;;;;64.68;27.10;;;;;;;;;;5073116;28;20028;-69
2021/12/17 04:02:32;;;;;;;60.03;26.65;;;;;;;;;;5054492;28;20128;-72
2021/12/17 04:04:58;;;;;;;60.35;28.42;;;;;;;;;;5055060;28;20028;-73
2021/12/17 04:07:24;;;;;;;51.55;26.40;;;;;;;;;;5072792;28;20028;-71
2021/12/17 04:09:50;;;;;;;60.30;26.90;;;;;;;;;;5055035;28;20101;-71
2021/12/17 04:12:19;;;;;;;50.90;26.48;;;;;;;;;;5054133;28;20024;-71
2021/12/17 04:14:47;;;;;;;46.80;25.52;;;;;;;;;;5054871;28;20023;-71
2021/12/17 04:17:20;;;;;;;56.03;25.05;;;;;;;;;;5072818;28;20035;-72
2021/12/17 04:19:46;;;;;;;49.08;23.77;;;;;;;;;;5055118;28;20396;-72
2021/12/17 04:22:12;;;;;;;52.10;25.23;;;;;;;;;;5071672;28;20031;-72
2021/12/17 04:24:38;;;;;;;51.13;24.35;;;;;;;;;;5054810;28;20021;-71
2021/12/17 04:27:06;;;;;;;50.58;23.73;;;;;;;;;;5072377;28;20024;-71
2021/12/17 04:29:33;;;;;;;48.47;23.67;;;;;;;;;;5054700;28;20108;-71
2021/12/17 04:31:59;;;;;;;50.63;23.38;;;;;;;;;;5053918;28;20050;-72
2021/12/17 04:34:25;;;;;;;46.95;24.60;;;;;;;;;;5054353;28;20123;-72
2021/12/17 04:36:55;;;;;;;46.92;23.13;;;;;;;;;;5054382;28;20032;-71
2021/12/17 04:39:23;;;;;;;48.35;22.83;;;;;;;;;;5054710;28;20051;-71
2021/12/17 04:44:31;;;;;;;45.38;22.40;;;;;;;;;;5072625;28;20032;-71
2021/12/17 04:57:39;;;;;;;43.33;18.20;;;;;;;;;;5076458;28;20099;-71
2021/12/17 05:00:05;;;;;;;38.90;19.27;;;;;;;;;;5076378;28;20021;-71
2021/12/17 05:02:36;;;;;;;43.55;20.30;;;;;;;;;;5057809;28;20016;-71
2021/12/17 05:05:06;;;;;;;36.42;17.77;;;;;;;;;;5058639;28;20020;-70
2021/12/17 05:07:33;;;;;;;38.92;18.75;;;;;;;;;;5076362;28;20107;-70
2021/12/17 05:18:24;;;;;;;36.65;19.38;;;;;;;;;;5076346;28;20078;-70
2021/12/17 05:20:57;;;;;;;43.13;19.58;;;;;;;;;;5057787;28;20021;-71
2021/12/17 05:23:31;;;;;;;41.72;18.90;;;;;;;;;;5057499;28;20017;-72
2021/12/17 05:25:58;;;;;;;42.55;20.27;;;;;;;;;;5075931;28;20448;-72
2021/12/17 05:28:24;;;;;;;39.72;18.80;;;;;;;;;;5076313;28;20564;-72
2021/12/17 05:30:50;;;;;;;35.75;15.98;;;;;;;;;;5058011;28;20082;-71
2021/12/17 05:33:17;;;;;;;35.80;15.63;;;;;;;;;;5075192;28;20025;-72
2021/12/17 05:35:43;;;;;;;30.95;15.38;;;;;;;;;;5057879;28;20025;-72
2021/12/17 05:38:10;;;;;;;31.95;15.38;;;;;;;;;;5075880;28;20060;-71
2021/12/17 05:40:37;;;;;;;35.15;15.85;;;;;;;;;;5058044;28;20059;-72
2021/12/17 05:43:05;;;;;;;31.10;15.20;;;;;;;;;;5057023;28;20024;-71
2021/12/17 05:45:35;;;;;;;31.13;16.00;;;;;;;;;;5057776;28;20404;-71
2021/12/17 05:48:05;;;;;;;32.67;15.73;;;;;;;;;;5057691;28;20077;-72
2021/12/17 05:50:31;;;;;;;29.55;14.25;;;;;;;;;;5075206;28;20104;-71
2021/12/17 05:52:57;;;;;;;27.98;14.75;;;;;;;;;;5056816;28;20033;-71
2021/12/17 05:55:23;;;;;;;31.77;15.00;;;;;;;;;;5057607;28;20389;-72
2021/12/17 05:57:49;;;;;;;29.77;13.68;;;;;;;;;;5075462;28;20028;-72
2021/12/17 06:00:16;;;;;;;27.83;14.10;;;;;;;;;;5075419;28;20504;-73
2021/12/17 06:02:42;;;;;;;29.88;14.20;;;;;;;;;;5055483;28;20035;-71
2021/12/17 06:05:08;;;;;;;28.80;14.73;;;;;;;;;;5057170;28;20044;-72
2021/12/17 06:07:34;;;;;;;30.50;14.57;;;;;;;;;;5074947;28;20469;-71
2021/12/17 06:10:03;;;;;;;28.02;12.07;;;;;;;;;;5057630;28;20017;-70
2021/12/17 06:12:29;;;;;;;26.98;12.57;;;;;;;;;;5074491;28;20099;-73
2021/12/17 06:14:55;;;;;;;30.60;14.65;;;;;;;;;;5075357;28;20445;-72
2021/12/17 06:17:21;;;;;;;25.60;12.73;;;;;;;;;;5074989;28;20412;-71
2021/12/17 06:19:47;;;;;;;26.83;12.70;;;;;;;;;;5057007;28;20032;-72
2021/12/17 06:22:14;;;;;;;28.48;13.75;;;;;;;;;;5071349;28;20031;-72
2021/12/17 06:24:45;;;;;;;27.73;13.02;;;;;;;;;;5074560;28;20021;-72
2021/12/17 06:27:12;;;;;;;27.15;13.48;;;;;;;;;;5056620;28;20028;-72
2021/12/17 06:29:38;;;;;;;29.02;14.52;;;;;;;;;;5067388;28;20259;-70
2021/12/17 06:32:04;;;;;;;28.73;14.77;;;;;;;;;;5036307;28;20194;-72
2021/12/17 06:34:31;;;;;;;31.65;14.95;;;;;;;;;;5054703;28;20029;-73
2021/12/17 06:36:57;;;;;;;29.38;13.88;;;;;;;;;;5036686;28;20067;-71
2021/12/17 06:39:24;;;;;;;28.92;14.13;;;;;;;;;;5053334;28;20431;-72
2021/12/17 06:41:50;;;;;;;27.83;13.95;;;;;;;;;;5073603;28;20468;-70
2021/12/17 06:44:21;;;;;;;29.70;13.98;;;;;;;;;;5074645;28;20025;-70
2021/12/17 06:46:56;;;;;;;32.60;15.43;;;;;;;;;;5074622;28;20023;-72
2021/12/17 07:24:46;;;;;;;31.92;14.85;;;;;;;;;;5072527;28;20024;-72
2021/12/17 07:39:37;;;;;;;34.75;15.82;;;;;;;;;;5073581;28;20033;-72
2021/12/17 07:42:03;;;;;;;33.05;15.80;;;;;;;;;;5054317;28;20024;-72
2021/12/17 07:44:29;;;;;;;28.17;14.52;;;;;;;;;;5055515;28;20021;-72
2021/12/17 07:46:56;;;;;;;32.58;15.93;;;;;;;;;;5055199;28;20412;-72
2021/12/17 07:49:22;;;;;;;31.55;14.80;;;;;;;;;;5072946;28;20023;-70
2021/12/17 07:51:48;;;;;;;30.33;14.18;;;;;;;;;;5072184;28;20038;-71
2021/12/17 07:54:14;;;;;;;28.02;14.02;;;;;;;;;;5073850;28;20056;-72
2021/12/17 07:56:40;;;;;;;31.30;14.57;;;;;;;;;;5055330;28;20074;-73
2021/12/17 07:59:10;;;;;;;33.08;15.68;;;;;;;;;;5073188;28;20114;-73
2021/12/17 08:01:37;;;;;;;30.02;14.20;;;;;;;;;;5059531;28;20119;-72
2021/12/17 08:04:04;;;;;;;30.60;14.85;;;;;;;;;;5063042;28;20040;-72
2021/12/17 08:06:30;;;;;;;33.03;16.13;;;;;;;;;;5080440;28;20052;-73
2021/12/17 08:08:56;;;;;;;28.58;14.93;;;;;;;;;;5082179;28;20043;-72
2021/12/17 08:11:22;;;;;;;29.75;13.98;;;;;;;;;;5064000;28;20105;-71
2021/12/17 08:13:49;;;;;;;33.28;14.52;;;;;;;;;;5080725;28;20028;-72
2021/12/17 08:16:28;;;;;;;35.90;16.98;;;;;;;;;;5080350;28;20024;-70
2021/12/17 08:29:51;;;;;;;26.88;13.35;;;;;;;;;;5075717;28;20025;-71
2021/12/17 08:32:17;;;;;;;25.63;14.23;;;;;;;;;;5056978;28;20033;-70
2021/12/17 08:34:43;;;;;;;29.40;13.68;;;;;;;;;;5057224;28;20541;-72
2021/12/17 08:37:10;;;;;;;28.10;14.05;;;;;;;;;;5055484;28;20119;-70
2021/12/17 08:39:36;;;;;;;25.02;13.38;;;;;;;;;;5056222;28;20025;-72
2021/12/17 08:42:02;;;;;;;28.13;14.52;;;;;;;;;;5056214;28;20031;-71
2021/12/17 08:44:28;;;;;;;26.90;13.35;;;;;;;;;;5057185;28;20388;-72
2021/12/17 08:46:54;;;;;;;24.98;13.35;;;;;;;;;;5056632;28;20044;-72
2021/12/17 08:49:20;;;;;;;25.83;13.45;;;;;;;;;;5058080;28;20017;-71
2021/12/17 08:51:46;;;;;;;26.10;13.20;;;;;;;;;;5075011;28;20523;-69
2021/12/17 08:54:12;;;;;;;25.88;12.98;;;;;;;;;;5064412;28;20016;-71
2021/12/17 08:56:49;;;;;;;25.70;12.60;;;;;;;;;;5064971;28;20056;-69
2021/12/17 08:59:16;;;;;;;25.52;14.15;;;;;;;;;;5065429;28;20488;-70
2021/12/17 09:01:43;;;;;;;27.70;13.68;;;;;;;;;;5082190;28;20020;-70
2021/12/17 09:04:09;;;;;;;25.80;13.07;;;;;;;;;;5055156;28;20025;-74
2021/12/17 09:06:35;;;;;;;24.77;12.95;;;;;;;;;;5071910;28;20028;-72
2021/12/17 09:09:02;;;;;;;25.48;11.85;;;;;;;;;;5054352;28;20021;-74
2021/12/17 09:11:29;;;;;;;24.75;11.95;;;;;;;;;;5054119;28;20025;-74
2021/12/17 09:13:56;;;;;;;24.83;13.05;;;;;;;;;;5054104;28;20032;-74
2021/12/17 09:16:23;;;;;;;27.88;13.20;;;;;;;;;;5054683;28;20054;-74
2021/12/17 09:18:49;;;;;;;25.20;12.05;;;;;;;;;;5055298;28;20120;-73
2021/12/17 09:21:16;;;;;;;23.67;12.48;;;;;;;;;;5072064;28;20355;-74
2021/12/17 09:23:42;;;;;;;23.50;13.40;;;;;;;;;;5072384;28;20104;-76
2021/12/17 09:26:09;;;;;;;22.15;13.10;;;;;;;;;;5054392;28;20484;-74
2021/12/17 09:28:35;;;;;;;24.98;12.18;;;;;;;;;;5072298;28;20137;-74
2021/12/17 09:31:01;;;;;;;27.30;13.45;;;;;;;;;;5053942;28;20067;-74
2021/12/17 09:33:27;;;;;;;25.48;13.18;;;;;;;;;;5053598;28;20021;-73
2021/12/17 09:38:36;;;;;;;29.90;14.68;;;;;;;;;;5080387;28;20053;-71
2021/12/17 09:41:02;;;;;;;25.50;14.05;;;;;;;;;;5072266;28;20020;-67
2021/12/17 09:43:32;;;;;;;24.67;13.63;;;;;;;;;;5071629;28;20016;-67
2021/12/17 09:45:59;;;;;;;23.50;12.77;;;;;;;;;;5073846;28;20126;-67
2021/12/17 09:48:25;;;;;;;21.60;11.98;;;;;;;;;;5053186;28;20415;-67
2021/12/17 09:50:56;;;;;;;23.00;11.18;;;;;;;;;;5068688;28;20528;-68
2021/12/17 09:53:22;;;;;;;21.45;11.10;;;;;;;;;;5053656;28;20115;-68
2021/12/17 09:55:50;;;;;;;21.98;12.45;;;;;;;;;;5070292;28;20024;-68
2021/12/17 09:58:17;;;;;;;20.77;10.88;;;;;;;;;;5070041;28;20032;-68
2021/12/17 10:00:43;;;;;;;21.95;11.52;;;;;;;;;;5069899;28;20076;-68
2021/12/17 10:03:09;;;;;;;20.17;10.50;;;;;;;;;;5052954;28;20097;-68
2021/12/17 10:05:36;;;;;;;22.20;10.70;;;;;;;;;;5053193;28;20021;-69
2021/12/17 10:08:13;;;;;;;22.85;12.35;;;;;;;;;;5053032;28;20146;-69
2021/12/17 10:10:50;;;;;;;22.65;11.10;;;;;;;;;;5053342;28;20025;-69
2021/12/17 10:13:22;;;;;;;21.42;10.48;;;;;;;;;;5067991;28;20095;-69
2021/12/17 10:15:55;;;;;;;19.33;10.65;;;;;;;;;;5053338;28;20028;-67
2021/12/17 10:18:31;;;;;;;18.90;9.52;;;;;;;;;;5068713;28;20480;-66
2021/12/17 10:20:58;;;;;;;19.10;9.77;;;;;;;;;;5051942;28;20040;-69
2021/12/17 10:23:25;;;;;;;18.95;9.50;;;;;;;;;;5070507;28;20391;-68
2021/12/17 10:25:51;;;;;;;18.27;9.77;;;;;;;;;;5072775;28;20103;-68
2021/12/17 10:28:18;;;;;;;19.15;10.52;;;;;;;;;;5072680;28;20029;-69
2021/12/17 10:30:45;;;;;;;21.38;10.60;;;;;;;;;;5071399;28;20032;-69
2021/12/17 10:33:14;;;;;;;19.70;11.10;;;;;;;;;;5070809;28;20025;-70
2021/12/17 10:35:44;;;;;;;;;;;;;;;;;;5072973;28;20678;-67
2021/12/17 10:38:14;;;;;;;20.20;10.27;;;;;;;;;;5072507;28;19999;-69
2021/12/17 10:40:46;;;;;;;19.83;10.05;;;;;;;;;;5072746;28;20270;-65
2021/12/17 10:43:24;;;;;;;20.98;12.23;;;;;;;;;;5072143;28;20021;-68
2021/12/17 10:46:05;;;;;;;22.60;12.38;;;;;;;;;;5072493;28;20024;-66
2021/12/17 10:53:54;;;;;;;20.17;11.50;;;;;;;;;;5071852;28;20023;-68
2021/12/17 10:59:31;;;;;;;21.00;11.48;;;;;;;;;;4997861;28;20180;-68
2021/12/17 11:02:05;;;;;;;22.20;10.77;;;;;;;;;;5052169;28;20021;-66
2021/12/17 11:04:36;;;;;;;20.65;11.20;;;;;;;;;;5051857;28;20388;-67
2021/12/17 11:07:06;;;;;;;21.17;11.52;;;;;;;;;;5052035;28;20028;-68
2021/12/17 11:09:34;;;;;;;21.65;12.05;;;;;;;;;;5052933;28;20094;-67
2021/12/17 11:12:02;;;;;;;21.45;11.27;;;;;;;;;;5050604;28;20064;-68
2021/12/17 11:14:29;;;;;;;20.98;11.88;;;;;;;;;;5054736;28;20032;-66
2021/12/17 11:16:55;;;;;;;18.38;10.15;;;;;;;;;;5067305;28;20021;-69
2021/12/17 11:19:21;;;;;;;20.05;10.40;;;;;;;;;;5052397;28;20507;-68
2021/12/17 11:21:47;;;;;;;21.67;11.77;;;;;;;;;;5061102;28;20454;-68
2021/12/17 11:24:14;;;;;;;20.77;12.00;;;;;;;;;;5069562;28;20048;-69
2021/12/17 11:26:40;;;;;;;21.27;11.60;;;;;;;;;;5072518;28;20024;-68
2021/12/17 11:29:07;;;;;;;21.20;11.55;;;;;;;;;;5072736;28;20144;-66
2021/12/17 11:31:33;;;;;;;25.45;11.45;;;;;;;;;;5072182;28;20028;-69
2021/12/17 11:34:01;;;;;;;21.17;11.93;;;;;;;;;;5071915;28;20515;-65
2021/12/17 11:36:28;;;;;;;22.77;12.25;;;;;;;;;;5070424;28;20052;-67
2021/12/17 11:39:30;;;;;;;23.83;12.15;;;;;;;;;;5072219;28;20028;-68
2021/12/17 11:42:16;;;;;;;21.85;11.50;;;;;;;;;;4970363;28;20034;-67
2021/12/17 11:44:51;;;;;;;21.80;11.60;;;;;;;;;;5065624;28;20028;-68
2021/12/17 11:47:17;;;;;;;19.08;11.10;;;;;;;;;;5071099;28;20469;-68
2021/12/17 11:49:50;;;;;;;19.52;11.20;;;;;;;;;;5071681;28;20055;-69
2021/12/17 11:52:35;;;;;;;20.70;12.00;;;;;;;;;;5069397;28;20541;-69
2021/12/17 11:55:19;;;;;;;20.70;11.48;;;;;;;;;;5071787;28;20071;-68
2021/12/17 11:57:45;;;;;;;21.58;12.18;;;;;;;;;;5069904;28;20025;-67
2021/12/17 12:00:15;;;;;;;20.65;12.35;;;;;;;;;;5069674;28;20595;-68
2021/12/17 12:02:51;;;;;;;19.02;11.57;;;;;;;;;;5053991;28;20038;-68
2021/12/17 12:05:35;;;;;;;21.05;11.98;;;;;;;;;;5071291;28;20450;-68
2021/12/17 12:08:20;;;;;;;19.75;12.45;;;;;;;;;;5071533;28;20063;-69
2021/12/17 12:11:02;;;;;;;21.20;11.80;;;;;;;;;;5053732;28;20060;-68
2021/12/17 12:13:36;;;;;;;20.35;11.70;;;;;;;;;;5070677;28;20476;-68
2021/12/17 12:16:04;;;;;;;21.80;11.07;;;;;;;;;;5071283;28;20092;-69
2021/12/17 12:18:44;;;;;;;20.52;11.60;;;;;;;;;;5053489;28;20400;-68
2021/12/17 12:21:11;;;;;;;22.05;12.13;;;;;;;;;;5052857;28;20644;-68
2021/12/17 12:23:39;;;;;;;20.63;10.18;;;;;;;;;;5065515;28;20020;-67
2021/12/17 12:26:07;;;;;;;19.55;11.13;;;;;;;;;;5070756;28;20108;-69
2021/12/17 12:28:46;;;;;;;20.77;9.88;;;;;;;;;;5069561;28;20166;-68
2021/12/17 12:31:34;;;;;;;20.25;11.52;;;;;;;;;;5070973;28;20426;-69
2021/12/17 12:34:03;;;;;;;18.85;9.90;;;;;;;;;;5052200;28;20051;-69
2021/12/17 12:36:51;;;;;;;19.50;10.73;;;;;;;;;;5069268;28;20025;-68
2021/12/17 12:39:25;;;;;;;21.33;10.75;;;10.70;99.90;;;;;;5071180;28;20047;-70
2021/12/17 12:42:17;;;;;;;27.20;11.98;;;9.60;99.90;;;;;;5070356;28;20069;-67
2021/12/17 12:44:43;;;;;;;22.63;10.48;;;9.60;99.90;;;;;;5053049;28;20153;-69
2021/12/17 12:47:10;;;;;;;22.08;11.35;;;9.80;99.90;;;;;;5070668;28;20038;-68
2021/12/17 12:49:46;;;;;;;19.75;10.52;;;;;;;;;;5069548;28;20025;-66
2021/12/17 12:52:15;;;;;;;20.02;11.93;;;;;;;;;;5070078;28;20400;-71
2021/12/17 12:54:41;;;;;;;21.38;11.00;;;;;;;;;;5070296;28;20493;-68
2021/12/17 12:57:07;;;;;;;22.08;11.80;;;;;;;;;;5070554;28;20031;-68
2021/12/17 12:59:33;;;;;;;21.77;12.27;;;;;;;;;;5069721;28;20036;-68
2021/12/17 13:01:59;;;;;;;21.98;11.52;;;;;;;;;;5068747;28;20029;-68
2021/12/17 13:04:30;;;;;;;21.98;11.50;;;;;;;;;;5071026;28;20052;-68
2021/12/17 13:06:56;;;;;;;21.08;11.82;;;;;;;;;;5069439;28;20112;-67
2021/12/17 13:09:29;;;;;;;23.50;14.85;;;10.00;99.90;;;;;;5070708;28;20033;-68
2021/12/17 13:11:55;;;;;;;25.05;12.70;;;10.20;99.90;;;;;;5069798;28;20020;-67
2021/12/17 13:14:24;;;;;;;23.20;12.57;;;10.00;99.90;;;;;;5074366;28;20119;-69
2021/12/17 13:22:43;;;;;;;22.95;13.10;;;10.00;99.90;;;;;;5054818;28;20055;-66
2021/12/17 13:25:08;;;;;;;24.58;13.00;;;10.00;99.90;;;;;;5074655;28;20024;-69
2021/12/17 13:27:34;;;;;;;23.55;14.68;;;10.00;99.90;;;;;;5074731;28;20018;-68
2021/12/17 13:29:59;;;;;;;22.27;13.98;;;9.90;99.90;;;;;;5074605;28;20029;-68
2021/12/17 13:32:27;;;;;;;24.55;14.40;;;10.00;99.90;;;;;;5072417;28;20039;-70
2021/12/17 13:34:55;;;;;;;25.02;12.57;;;9.90;99.90;;;;;;5074366;28;20425;-69
2021/12/17 13:37:24;;;;;;;23.88;13.10;;;;;;;;;;5074268;28;20149;-68
2021/12/17 13:39:58;;;;;;;25.10;13.82;;;;;;;;;;5073172;28;20056;-67
2021/12/17 13:42:25;;;;;;;21.95;12.52;;;;;;;;;;5071689;28;20024;-69
2021/12/17 13:44:58;;;;;;;21.77;12.13;;;;;;;;;;5073583;28;20024;-67
2021/12/17 13:47:31;;;;;;;26.48;12.88;;;;;;;;;;5073632;28;20370;-69
2021/12/17 13:50:13;;;;;;;22.08;10.13;;;;;;;;;;5073525;28;20048;-67
2021/12/17 13:52:45;;;;;;;21.63;11.55;;;;;;;;;;5071913;28;20047;-68
2021/12/17 13:55:12;;;;;;;20.58;11.40;;;;;;;;;;5074281;28;20032;-69
2021/12/17 13:57:40;;;;;;;22.70;12.60;;;;;;;;;;5073927;28;20036;-68
2021/12/17 14:00:14;;;;;;;23.67;10.98;;;;;;;;;;5074374;28;20021;-68
2021/12/17 14:02:41;;;;;;;20.88;11.07;;;;;;;;;;5072980;28;20039;-68
2021/12/17 14:05:09;;;;;;;21.33;11.43;;;;;;;;;;5073879;28;20075;-67
2021/12/17 14:07:36;;;;;;;23.25;10.88;;;;;;;;;;5072675;28;20472;-67
2021/12/17 14:10:07;;;;;;;20.83;12.15;;;;;;;;;;5073938;28;20495;-68
2021/12/17 14:12:36;;;;;;;22.95;11.85;;;;;;;;;;5072399;28;20514;-68
2021/12/17 14:15:22;;;;;;;20.30;11.15;;;;;;;;;;5074814;28;20144;-69
2021/12/17 14:18:02;;;;;;;19.65;10.63;;;;;;;;;;5073364;28;20035;-69
2021/12/17 14:20:30;;;;;;;21.05;11.75;;;;;;;;;;5073780;28;20021;-68
2021/12/17 14:23:00;;;;;;;19.50;10.45;;;;;;;;;;5072081;28;20472;-68
2021/12/17 14:25:39;;;;;;;27.25;13.45;;;;;;;;;;5070828;28;20032;-66
2021/12/17 14:28:25;;;;;;;24.88;13.40;;;;;;;;;;5071830;28;20021;-67
2021/12/17 14:31:12;;;;;;;23.65;12.05;;;;;;;;;;5072683;28;20074;-68
2021/12/17 14:33:39;;;;;;;24.98;13.70;;;;;;;;;;5072672;28;20051;-69
2021/12/17 14:36:05;;;;;;;20.23;11.52;;;;;;;;;;5073190;28;20104;-68
2021/12/17 14:38:39;;;;;;;24.73;12.60;;;;;;;;;;5073011;28;20086;-69
2021/12/17 14:41:06;;;;;;;21.05;12.02;;;;;;;;;;5073143;28;20021;-66
2021/12/17 14:43:43;;;;;;;20.77;11.57;;;;;;;;;;5071071;28;20040;-68
2021/12/17 14:46:16;;;;;;;21.75;11.38;;;;;;;;;;5072880;28;20099;-67
2021/12/17 14:48:57;;;;;;;21.00;10.77;;;;;;;;;;5073073;28;20059;-68
2021/12/17 14:57:23;;;;;;;18.70;10.27;;;;;;;;;;5050226;28;20079;-69
2021/12/17 15:02:49;;;;;;;21.15;11.27;;;;;;;;;;5064748;28;20050;-69
2021/12/17 15:05:20;;;;;;;21.33;10.25;;;;;;;;;;5071635;28;20485;-67
2021/12/17 15:07:46;;;;;;;21.52;11.00;;;;;;;;;;5071140;28;20505;-67
2021/12/17 15:10:13;;;;;;;21.02;9.63;;;;;;;;;;5072537;28;20104;-69
2021/12/17 15:12:39;;;;;;;21.13;9.35;;;;;;;;;;5070634;28;20388;-69
2021/12/17 15:15:05;;;;;;;23.48;9.82;;;;;;;;;;5072364;28;20053;-67
2021/12/17 15:17:32;;;;;;;18.13;9.20;;;;;;;;;;5072250;28;20110;-67
2021/12/17 15:19:58;;;;;;;19.92;9.73;;;;;;;;;;5072731;28;20021;-68
2021/12/17 15:22:24;;;;;;;22.73;9.40;;;;;;;;;;5071606;28;20028;-66
2021/12/17 15:24:50;;;;;;;19.80;10.07;;;;;;;;;;5072118;28;20496;-68
2021/12/17 15:27:16;;;;;;;20.30;10.25;;;;;;;;;;5071930;28;20025;-66
2021/12/17 15:29:42;;;;;;;18.52;9.60;;;;;;;;;;5072014;28;20024;-66
2021/12/17 15:32:09;;;;;;;19.23;9.40;;;;;;;;;;5071620;28;20035;-69
2021/12/17 15:34:35;;;;;;;18.52;9.40;;;;;;;;;;5072346;28;20025;-68
2021/12/17 15:37:01;;;;;;;19.73;10.32;;;;;;;;;;5085980;22;20062;-66
2021/12/17 15:39:27;;;;;;;18.70;10.05;;;;;;;;;;5074441;28;20127;-67
2021/12/17 15:41:53;;;;;;;20.95;9.82;;;;;;;;;;5092546;28;20053;-67
2021/12/17 15:44:25;;;;;;;18.77;9.25;;;;;;;;;;5093014;28;20027;-66
2021/12/17 15:46:52;;;;;;;20.70;10.13;;;;;;;;;;5090965;28;20445;-66
2021/12/17 15:49:18;;;;;;;17.45;9.80;;;;;;;;;;5073955;28;20368;-67
2021/12/17 15:51:44;;;;;;;19.33;9.57;;;;;;;;;;5073434;28;20028;-67
2021/12/17 15:54:10;;;;;;;18.83;9.93;;;;;;;;;;5074505;28;20031;-66
2021/12/17 15:56:43;;;;;;;20.23;9.85;;;;;;;;;;5074466;28;20054;-66
2021/12/17 15:59:09;;;;;;;21.10;10.00;;;;;;;;;;5092901;28;20024;-67
2021/12/17 16:01:35;;;;;;;18.63;9.52;;;;;;;;;;5092429;28;20038;-65
2021/12/17 16:04:01;;;;;;;19.13;9.90;;;;;;;;;;5074040;28;20038;-66
2021/12/17 16:06:27;;;;;;;18.20;9.40;;;;;;;;;;5074278;28;20016;-68
2021/12/17 16:08:56;;;;;;;22.05;10.20;;;;;;;;;;5074127;28;20026;-68
2021/12/17 16:22:04;;;;;;;21.40;9.93;;;;;;;;;;5057913;28;20028;-66
2021/12/17 16:24:30;;;;;;;19.45;10.15;;;;;;;;;;5092147;28;20023;-66
2021/12/17 16:26:56;;;;;;;22.38;10.60;;;;;;;;;;5091919;28;20306;-66
2021/12/17 16:29:22;;;;;;;20.50;11.07;;;;;;;;;;5091802;28;20050;-69
2021/12/17 16:31:49;;;;;;;22.08;10.95;;;;;;;;;;5091131;28;20032;-66
2021/12/17 16:34:15;;;;;;;23.52;12.23;;;;;;;;;;5092246;28;20103;-67
2021/12/17 16:36:42;;;;;;;21.35;11.50;;;;;;;;;;5074050;28;20028;-69
2021/12/17 16:39:10;;;;;;;23.52;11.73;;;;;;;;;;5091800;28;20495;-66
2021/12/17 16:41:36;;;;;;;21.88;11.10;;;;;;;;;;4735295;28;9999615;-65
2021/12/17 16:44:06;;;;;;;21.02;10.98;;;;;;;;;;5070969;28;20032;-66
2021/12/17 16:49:06;;;;;;;20.85;11.65;;;;;;;;;;5089156;28;20559;-65
2021/12/17 16:51:32;;;;;;;21.08;11.10;;;;;;;;;;5070251;28;20043;-67
2021/12/17 16:53:58;;;;;;;20.33;10.52;;;;;;;;;;5088255;28;20531;-67
2021/12/17 16:56:24;;;;;;;18.85;9.65;;;;;;;;;;5089138;28;20097;-65
2021/12/17 16:58:50;;;;;;;19.65;10.68;;;;;;;;;;5070577;28;20028;-66
2021/12/17 17:01:17;;;;;;;22.42;11.30;;;;;;;;;;5070433;28;20112;-66
2021/12/17 17:03:43;;;;;;;20.20;10.35;;;;;;;;;;5087705;28;20035;-67
2021/12/17 17:06:09;;;;;;;25.20;11.60;;;;;;;;;;5089061;28;20110;-65
2021/12/17 17:08:36;;;;;;;21.90;12.02;;;;;;;;;;5089160;28;20038;-68
2021/12/17 17:11:04;;;;;;;19.88;10.98;;;;;;;;;;5088889;28;20020;-65
2021/12/17 17:13:31;;;;;;;19.50;10.80;;;;;;;;;;5070097;28;20028;-67
2021/12/17 17:15:57;;;;;;;19.67;10.93;;;;;;;;;;5070453;28;20407;-66
2021/12/17 17:18:23;;;;;;;22.90;11.05;;;;;;;;;;5070417;28;20490;-65
2021/12/17 17:20:49;;;;;;;21.17;11.05;;;;;;;;;;5088884;28;20024;-67
2021/12/17 17:23:15;;;;;;;19.45;10.25;;;;;;;;;;5070021;28;20118;-67
2021/12/17 17:25:45;;;;;;;23.90;10.93;;;;;;;;;;5070864;28;20061;-68
2021/12/17 17:28:11;;;;;;;20.85;11.00;;;;;;;;;;5088504;28;20439;-68
2021/12/17 17:30:38;;;;;;;23.80;12.32;;;;;;;;;;5088872;28;20107;-67
2021/12/17 17:33:05;;;;;;;22.75;12.73;;;;;;;;;;5070051;28;20119;-67
2021/12/17 17:35:33;;;;;;;19.95;11.18;;;;;;;;;;5088929;28;20020;-69
2021/12/17 17:37:59;;;;;;;22.50;12.35;;;;;;;;;;5070721;28;20036;-68
2021/12/17 17:40:25;;;;;;;23.00;11.18;;;;;;;;;;5088715;28;20028;-67
2021/12/17 17:42:51;;;;;;;22.60;11.30;;;;;;;;;;5088375;28;20094;-68
2021/12/17 17:45:18;;;;;;;23.27;11.90;;;;;;;;;;5089061;28;20451;-67
2021/12/17 17:47:48;;;;;;;23.77;12.90;;;;;;;;;;5088465;28;20028;-68
2021/12/17 17:50:15;;;;;;;21.42;12.02;;;;;;;;;;5088698;28;20474;-67
2021/12/17 17:52:41;;;;;;;21.50;12.30;;;;;;;;;;5087558;28;20021;-68
2021/12/17 17:55:07;;;;;;;22.80;12.25;;;;;;;;;;5088034;28;20035;-68
2021/12/17 17:57:33;;;;;;;22.23;12.77;;;;;;;;;;5088316;28;20477;-68